createdAt,value
2019-02-06T00:01:02.837Z,86.46
2019-02-06T00:03:32.979Z,86.42
2019-02-06T00:06:03.179Z,86.40
2019-02-06T00:08:33.364Z,86.29
2019-02-06T00:11:03.878Z,86.26
2019-02-06T00:13:34.368Z,86.13
2019-02-06T00:16:07.868Z,86.19
2019-02-06T00:18:38.217Z,86.31
2019-02-06T00:21:08.801Z,86.54
2019-02-06T00:23:38.979Z,86.66
2019-02-06T00:26:09.321Z,86.61
2019-02-06T00:28:39.475Z,86.42
2019-02-06T00:31:09.998Z,86.40
2019-02-06T00:33:40.242Z,86.38
2019-02-06T00:36:10.803Z,86.46
2019-02-06T00:38:41.174Z,86.75
2019-02-06T00:41:11.729Z,87.01
2019-02-06T00:43:41.872Z,87.02
2019-02-06T00:46:12.063Z,86.91
2019-02-06T00:48:43.301Z,86.68
2019-02-06T00:51:14.683Z,86.64
2019-02-06T00:53:44.944Z,86.77
2019-02-06T00:56:15.404Z,86.89
2019-02-06T00:58:45.570Z,87.00
2019-02-06T01:01:15.971Z,87.19
2019-02-06T01:03:46.208Z,87.43
2019-02-06T01:06:16.492Z,87.39
2019-02-06T01:08:47.320Z,87.19
2019-02-06T01:11:17.918Z,87.26
2019-02-06T01:13:48.164Z,87.12
2019-02-06T01:16:18.403Z,86.97
2019-02-06T01:18:48.569Z,86.90
2019-02-06T01:21:18.796Z,86.89
2019-02-06T01:23:48.936Z,87.10
2019-02-06T01:26:19.117Z,88.34
2019-02-06T01:28:49.449Z,88.40
2019-02-06T01:31:25.390Z,88.04
2019-02-06T01:33:55.605Z,88.00
2019-02-06T01:36:26.665Z,88.60
2019-02-06T01:38:57.028Z,88.62
2019-02-06T01:41:27.297Z,88.87
2019-02-06T01:43:57.437Z,89.38
2019-02-06T01:46:27.710Z,89.06
2019-02-06T01:48:58.245Z,89.39
2019-02-06T01:51:28.878Z,89.21
2019-02-06T01:53:59.123Z,88.90
2019-02-06T01:56:29.308Z,88.49
2019-02-06T01:58:59.495Z,88.24
2019-02-06T02:01:29.863Z,88.21
2019-02-06T02:04:00.019Z,88.30
2019-02-06T02:06:30.536Z,88.37
2019-02-06T02:09:01.787Z,88.23
2019-02-06T02:11:33.214Z,87.81
2019-02-06T02:14:03.484Z,87.50
2019-02-06T02:16:33.749Z,87.30
2019-02-06T02:19:04.874Z,87.29
2019-02-06T02:21:35.170Z,87.39
2019-02-06T02:24:06.460Z,87.73
2019-02-06T02:26:36.674Z,87.98
2019-02-06T02:29:06.827Z,88.04
2019-02-06T02:31:36.975Z,87.87
2019-02-06T02:34:07.080Z,87.56
2019-02-06T02:36:37.249Z,87.43
2019-02-06T02:39:09.947Z,87.34
2019-02-06T02:41:40.326Z,87.30
2019-02-06T02:44:10.531Z,87.50
2019-02-06T02:46:41.140Z,87.83
2019-02-06T02:49:11.292Z,88.15
2019-02-06T02:51:44.457Z,88.19
2019-02-06T02:54:14.463Z,88.23
2019-02-06T02:56:44.783Z,88.17
2019-02-06T02:59:15.809Z,88.31
2019-02-06T03:01:54.051Z,88.33
2019-02-06T03:04:28.926Z,88.25
2019-02-06T03:06:59.085Z,88.37
2019-02-06T03:09:29.283Z,88.60
2019-02-06T03:11:59.587Z,88.61
2019-02-06T03:14:30.049Z,88.77
2019-02-06T03:17:03.171Z,88.51
2019-02-06T03:19:32.869Z,88.01
2019-02-06T03:22:03.453Z,87.67
2019-02-06T03:24:34.241Z,87.64
2019-02-06T03:27:04.397Z,87.75
2019-02-06T03:29:34.858Z,87.63
2019-02-06T03:32:04.994Z,87.64
2019-02-06T03:34:35.361Z,87.67
2019-02-06T03:37:05.476Z,87.68
2019-02-06T03:39:36.125Z,87.55
2019-02-06T03:42:06.579Z,87.69
2019-02-06T03:44:36.769Z,87.69
2019-02-06T03:47:07.008Z,87.83
2019-02-06T03:49:37.262Z,87.77
2019-02-06T03:52:07.511Z,87.69
2019-02-06T03:54:37.666Z,87.79
2019-02-06T03:57:07.986Z,88.13
2019-02-06T03:59:38.132Z,88.36
2019-02-06T04:02:08.285Z,88.38
2019-02-06T04:04:38.499Z,88.39
2019-02-06T04:07:08.937Z,88.27
2019-02-06T04:09:39.213Z,88.15
2019-02-06T04:12:10.007Z,88.09
2019-02-06T04:14:40.308Z,88.05
2019-02-06T04:17:10.596Z,88.01
2019-02-06T04:19:40.783Z,88.04
2019-02-06T04:22:11.511Z,88.19
2019-02-06T04:24:42.031Z,88.17
2019-02-06T04:27:12.185Z,87.98
2019-02-06T04:29:43.072Z,87.93
2019-02-06T04:32:13.595Z,87.93
2019-02-06T04:34:43.758Z,87.94
2019-02-06T04:37:13.894Z,87.91
2019-02-06T04:39:44.194Z,87.89
2019-02-06T04:42:14.487Z,87.99
2019-02-06T04:44:44.774Z,88.24
2019-02-06T04:47:15.040Z,88.32
2019-02-06T04:49:45.806Z,88.36
2019-02-06T04:52:16.243Z,88.36
2019-02-06T04:54:46.507Z,88.14
2019-02-06T04:57:16.742Z,87.78
2019-02-06T04:59:46.916Z,87.45
2019-02-06T05:02:17.187Z,87.35
2019-02-06T05:04:47.371Z,87.39
2019-02-06T05:07:19.757Z,87.39
2019-02-06T05:09:50.596Z,87.51
2019-02-06T05:12:20.870Z,87.67
2019-02-06T05:14:51.055Z,87.80
2019-02-06T05:17:22.153Z,87.71
2019-02-06T05:19:52.405Z,87.66
2019-02-06T05:22:22.563Z,87.54
2019-02-06T05:24:52.760Z,87.48
2019-02-06T05:27:22.930Z,87.57
2019-02-06T05:29:53.573Z,87.77
2019-02-06T05:32:24.271Z,87.86
2019-02-06T05:34:54.433Z,88.01
2019-02-06T05:37:32.090Z,87.89
2019-02-06T05:39:56.683Z,87.69
2019-02-06T05:42:27.012Z,87.60
2019-02-06T05:44:57.184Z,87.67
2019-02-06T05:47:28.391Z,87.77
2019-02-06T05:49:58.643Z,87.94
2019-02-06T05:52:28.851Z,88.16
2019-02-06T05:54:59.019Z,88.18
2019-02-06T05:57:29.331Z,88.09
2019-02-06T06:00:00.615Z,88.46
2019-02-06T06:02:31.141Z,88.25
2019-02-06T06:05:01.544Z,87.92
2019-02-06T06:07:44.141Z,87.61
2019-02-06T06:10:04.813Z,87.51
2019-02-06T06:12:35.142Z,87.54
2019-02-06T06:15:06.321Z,87.52
2019-02-06T06:17:36.778Z,87.59
2019-02-06T06:20:08.671Z,87.57
2019-02-06T06:22:38.964Z,87.63
2019-02-06T06:25:10.248Z,87.60
2019-02-06T06:27:40.488Z,87.47
2019-02-06T06:30:13.282Z,87.30
2019-02-06T06:32:43.605Z,87.19
2019-02-06T06:35:14.496Z,87.07
2019-02-06T06:37:57.078Z,87.08
2019-02-06T06:40:19.743Z,87.08
2019-02-06T06:42:50.399Z,87.11
2019-02-06T06:45:22.218Z,87.11
2019-02-06T06:47:52.665Z,87.22
2019-02-06T06:50:24.330Z,87.34
2019-02-06T06:52:54.756Z,87.42
2019-02-06T06:55:25.284Z,87.39
2019-02-06T06:57:55.417Z,87.07
2019-02-06T07:00:27.360Z,86.92
2019-02-06T07:02:57.593Z,86.84
2019-02-06T07:05:27.795Z,86.78
2019-02-06T07:08:09.056Z,86.77
2019-02-06T07:10:31.034Z,86.69
2019-02-06T07:13:01.424Z,86.80
2019-02-06T07:15:36.123Z,86.77
2019-02-06T07:18:06.579Z,86.56
2019-02-06T07:20:36.927Z,86.47
2019-02-06T07:23:07.293Z,86.44
2019-02-06T07:25:37.981Z,86.30
2019-02-06T07:28:08.276Z,86.17
2019-02-06T07:30:38.512Z,85.97
2019-02-06T07:33:08.682Z,85.75
2019-02-06T07:35:39.328Z,85.69
2019-02-06T07:38:22.338Z,85.61
2019-02-06T07:40:42.102Z,85.47
2019-02-06T07:43:12.356Z,85.37
2019-02-06T07:45:42.558Z,85.15
2019-02-06T07:48:12.746Z,84.96
2019-02-06T07:50:43.853Z,84.76
2019-02-06T07:53:14.329Z,84.55
2019-02-06T07:55:44.637Z,84.41
2019-02-06T07:58:14.943Z,84.33
2019-02-06T08:00:45.112Z,84.11
2019-02-06T08:03:15.644Z,83.67
2019-02-06T08:05:46.174Z,83.47
2019-02-06T08:08:16.540Z,83.36
2019-02-06T08:10:46.686Z,83.04
2019-02-06T08:13:17.160Z,82.53
2019-02-06T08:15:47.367Z,82.49
2019-02-06T08:18:18.305Z,82.45
2019-02-06T08:20:48.610Z,81.94
2019-02-06T08:23:19.387Z,81.58
2019-02-06T08:25:49.736Z,81.33
2019-02-06T08:28:20.247Z,80.75
2019-02-06T08:30:50.399Z,78.54
2019-02-06T08:33:20.925Z,77.08
2019-02-06T08:35:51.265Z,74.17
2019-02-06T08:38:21.650Z,69.32
2019-02-06T08:40:51.828Z,64.39
2019-02-06T08:43:22.290Z,60.34
2019-02-06T08:45:54.620Z,56.34
2019-02-06T08:48:25.106Z,53.17
2019-02-06T08:50:55.533Z,49.25
2019-02-06T08:53:25.883Z,50.03
2019-02-06T08:55:56.071Z,47.58
2019-02-06T08:58:26.246Z,45.79
2019-02-06T09:00:56.574Z,44.48
2019-02-06T09:03:26.942Z,42.60
2019-02-06T09:05:57.094Z,40.80
2019-02-06T09:08:27.364Z,41.08
2019-02-06T09:10:57.585Z,43.07
2019-02-06T09:13:28.091Z,40.79
2019-02-06T09:15:58.825Z,39.62
2019-02-06T09:18:29.474Z,37.43
2019-02-06T09:20:59.724Z,35.24
2019-02-06T09:23:30.147Z,35.09
2019-02-06T09:26:00.343Z,35.01
2019-02-06T09:28:31.841Z,35.38
2019-02-06T09:31:02.351Z,36.23
2019-02-06T09:33:32.746Z,33.84
2019-02-06T09:36:03.267Z,31.77
2019-02-06T09:38:33.646Z,30.56
2019-02-06T09:41:04.547Z,30.48
2019-02-06T09:43:34.790Z,30.68
2019-02-06T09:46:05.708Z,32.18
2019-02-06T09:48:36.123Z,30.72
2019-02-06T09:51:06.312Z,28.94
2019-02-06T09:53:36.620Z,27.96
2019-02-06T09:56:06.944Z,30.86
2019-02-06T09:58:37.755Z,34.02
2019-02-06T10:01:08.123Z,34.79
2019-02-06T10:03:38.406Z,35.04
2019-02-06T10:06:08.646Z,35.39
2019-02-06T10:08:38.812Z,36.77
2019-02-06T10:11:09.679Z,37.77
2019-02-06T10:13:40.259Z,35.97
2019-02-06T10:16:10.972Z,35.88
2019-02-06T10:18:41.337Z,36.32
2019-02-06T10:21:11.786Z,38.27
2019-02-06T10:23:42.524Z,37.67
2019-02-06T10:26:13.059Z,37.17
2019-02-06T10:28:43.257Z,36.14
2019-02-06T10:31:13.707Z,35.09
2019-02-06T10:33:44.494Z,35.66
2019-02-06T10:36:15.318Z,35.11
2019-02-06T10:38:46.076Z,34.62
2019-02-06T10:41:16.381Z,32.71
2019-02-06T10:43:47.177Z,31.12
2019-02-06T10:46:18.318Z,30.33
2019-02-06T10:48:50.184Z,29.82
2019-02-06T10:51:20.667Z,28.56
2019-02-06T10:53:51.177Z,25.75
2019-02-06T10:56:21.469Z,26.41
2019-02-06T10:58:52.308Z,25.24
2019-02-06T11:01:27.182Z,25.21
2019-02-06T11:03:57.622Z,27.35
2019-02-06T11:06:27.793Z,27.98
2019-02-06T11:08:58.083Z,27.40
2019-02-06T11:11:28.480Z,28.41
2019-02-06T11:13:59.173Z,26.64
2019-02-06T11:16:29.471Z,24.81
2019-02-06T11:18:59.888Z,23.85
2019-02-06T11:21:30.118Z,22.95
2019-02-06T11:24:01.177Z,21.78
2019-02-06T11:26:31.562Z,22.45
2019-02-06T11:29:01.798Z,21.30
2019-02-06T11:31:31.971Z,20.95
2019-02-06T11:34:03.681Z,20.06
2019-02-06T11:36:34.963Z,20.32
2019-02-06T11:39:12.089Z,20.60
2019-02-06T11:41:42.512Z,21.33
2019-02-06T11:44:15.084Z,19.30
2019-02-06T11:46:45.577Z,18.27
2019-02-06T11:49:16.918Z,18.21
2019-02-06T11:51:47.167Z,17.23
2019-02-06T11:54:17.980Z,17.19
2019-02-06T11:56:48.318Z,16.67
2019-02-06T11:59:19.434Z,16.45
2019-02-06T12:01:52.637Z,15.77
2019-02-06T12:04:23.739Z,15.29
2019-02-06T12:06:53.973Z,14.79
2019-02-06T12:09:24.263Z,15.16
2019-02-06T12:11:54.469Z,15.65
2019-02-06T12:14:24.735Z,17.13
2019-02-06T12:16:55.028Z,19.09
2019-02-06T12:19:25.249Z,20.15
2019-02-06T12:21:55.410Z,19.82
2019-02-06T12:24:25.564Z,18.46
2019-02-06T12:26:56.428Z,18.91
2019-02-06T12:29:26.806Z,19.03
2019-02-06T12:31:57.007Z,21.08
2019-02-06T12:34:27.337Z,20.08
2019-02-06T12:36:57.510Z,21.52
2019-02-06T12:39:27.727Z,22.27
2019-02-06T12:41:58.853Z,22.37
2019-02-06T12:44:29.825Z,22.18
2019-02-06T12:47:01.312Z,22.88
2019-02-06T12:49:31.598Z,21.78
2019-02-06T12:52:02.103Z,23.62
2019-02-06T12:54:32.645Z,21.78
2019-02-06T12:57:02.992Z,22.92
2019-02-06T12:59:33.191Z,22.63
2019-02-06T13:02:03.828Z,21.20
2019-02-06T13:04:34.183Z,21.21
2019-02-06T13:07:04.621Z,20.00
2019-02-06T13:09:35.101Z,20.70
2019-02-06T13:12:09.499Z,19.35
2019-02-06T13:14:40.098Z,18.37
2019-02-06T13:17:10.333Z,18.98
2019-02-06T13:19:41.294Z,19.51
2019-02-06T13:22:13.581Z,18.49
2019-02-06T13:24:44.154Z,19.92
2019-02-06T13:27:14.881Z,21.35
2019-02-06T13:29:46.832Z,24.44
2019-02-06T13:32:17.255Z,23.02
2019-02-06T13:34:47.567Z,25.96
2019-02-06T13:37:17.904Z,25.39
2019-02-06T13:39:48.863Z,24.00
2019-02-06T13:42:19.223Z,24.15
2019-02-06T13:44:49.504Z,23.93
2019-02-06T13:47:20.057Z,23.50
2019-02-06T13:49:53.618Z,25.66
2019-02-06T13:52:24.894Z,25.66
2019-02-06T13:54:55.242Z,25.89
2019-02-06T13:57:33.586Z,26.75
2019-02-06T13:59:58.165Z,28.32
2019-02-06T14:02:28.821Z,28.81
2019-02-06T14:04:59.702Z,30.85
2019-02-06T14:07:30.117Z,31.88
2019-02-06T14:10:00.748Z,31.57
2019-02-06T14:12:31.179Z,30.37
2019-02-06T14:15:01.533Z,28.53
2019-02-06T14:17:31.921Z,28.30
2019-02-06T14:20:02.737Z,28.50
2019-02-06T14:22:33.443Z,27.70
2019-02-06T14:25:21.958Z,28.76
2019-02-06T14:28:06.973Z,28.54
2019-02-06T14:30:46.588Z,27.11
2019-02-06T14:33:40.299Z,26.35
2019-02-06T14:36:56.239Z,25.61
2019-02-06T14:39:48.428Z,25.70
2019-02-06T14:42:45.147Z,24.81
2019-02-06T14:46:02.328Z,24.82
2019-02-06T14:48:56.059Z,25.94
2019-02-06T14:52:03.164Z,28.32
2019-02-06T14:55:02.537Z,28.32
2019-02-06T14:58:15.564Z,28.87
2019-02-06T15:01:33.443Z,28.81
2019-02-06T15:04:39.996Z,29.05
2019-02-06T15:07:41.279Z,29.60
2019-02-06T15:10:48.032Z,29.86
2019-02-06T15:13:58.285Z,29.74
2019-02-06T15:17:05.760Z,30.61
2019-02-06T15:20:32.785Z,31.48
2019-02-06T15:23:38.057Z,32.31
2019-02-06T15:26:24.238Z,32.82
2019-02-06T15:29:16.833Z,33.84
2019-02-06T15:32:30.784Z,34.49
2019-02-06T15:35:40.745Z,36.19
2019-02-06T15:38:43.594Z,37.23
2019-02-06T15:41:33.923Z,37.92
2019-02-06T15:44:24.497Z,38.21
2019-02-06T15:47:33.093Z,38.88
2019-02-06T15:50:39.908Z,40.05
2019-02-06T15:53:42.694Z,41.35
2019-02-06T15:56:47.018Z,41.69
2019-02-06T15:59:42.847Z,42.46
2019-02-06T16:02:55.821Z,43.77
2019-02-06T16:06:11.541Z,45.12
2019-02-06T16:09:15.619Z,45.45
2019-02-06T16:12:17.954Z,46.64
2019-02-06T16:15:20.922Z,47.49
2019-02-06T16:18:47.640Z,49.84
2019-02-06T16:21:53.205Z,50.33
2019-02-06T16:24:57.390Z,51.15
2019-02-06T16:28:08.109Z,51.50
2019-02-06T16:30:54.296Z,52.07
2019-02-06T16:34:00.075Z,52.91
2019-02-06T16:36:53.737Z,53.38
2019-02-06T16:39:45.690Z,53.82
2019-02-06T16:42:51.806Z,54.18
2019-02-06T16:46:10.668Z,54.67
2019-02-06T16:49:55.853Z,55.20
2019-02-06T16:53:04.737Z,56.18
2019-02-06T16:56:25.882Z,57.10
2019-02-06T16:59:52.212Z,57.38
2019-02-06T17:02:53.024Z,57.68
2019-02-06T17:06:00.362Z,58.50
2019-02-06T17:09:01.553Z,58.99
2019-02-06T17:12:04.582Z,59.33
2019-02-06T17:15:20.220Z,60.04
2019-02-06T17:18:33.619Z,61.22
2019-02-06T17:21:14.840Z,61.46
2019-02-06T17:24:00.200Z,62.80
2019-02-06T17:27:14.664Z,63.05
2019-02-06T17:30:15.807Z,63.61
2019-02-06T17:33:21.125Z,63.74
2019-02-06T17:36:27.478Z,63.79
2019-02-06T17:39:42.848Z,64.84
2019-02-06T17:43:07.609Z,65.13
2019-02-06T17:46:18.863Z,65.62
2019-02-06T17:49:16.025Z,65.86
2019-02-06T17:52:10.452Z,66.12
2019-02-06T17:55:07.867Z,66.48
2019-02-06T17:57:38.361Z,66.97
2019-02-06T18:00:16.272Z,67.34
2019-02-06T18:02:49.209Z,67.50
2019-02-06T18:05:19.945Z,67.97
2019-02-06T18:07:50.652Z,68.18
2019-02-06T18:10:21.894Z,68.26
2019-02-06T18:12:53.322Z,68.62
2019-02-06T18:15:24.173Z,69.01
2019-02-06T18:17:55.673Z,69.19
2019-02-06T18:20:28.468Z,69.75
2019-02-06T18:22:59.179Z,70.10
2019-02-06T18:25:29.903Z,71.06
2019-02-06T18:28:00.329Z,71.57
2019-02-06T18:30:34.008Z,72.12
2019-02-06T18:33:05.265Z,72.42
2019-02-06T18:35:35.599Z,72.92
2019-02-06T18:38:07.817Z,73.23
2019-02-06T18:40:40.775Z,73.25
2019-02-06T18:43:11.164Z,73.25
2019-02-06T18:45:42.926Z,73.20
2019-02-06T18:48:13.597Z,73.01
2019-02-06T18:50:44.235Z,73.16
2019-02-06T18:53:15.131Z,73.25
2019-02-06T18:55:45.963Z,73.51
2019-02-06T18:58:16.797Z,73.27
2019-02-06T19:00:47.496Z,73.35
2019-02-06T19:03:20.624Z,73.59
2019-02-06T19:05:52.331Z,74.13
2019-02-06T19:08:23.054Z,74.13
2019-02-06T19:10:53.979Z,74.38
2019-02-06T19:13:24.328Z,74.60
2019-02-06T19:15:56.490Z,74.91
2019-02-06T19:18:26.747Z,74.91
2019-02-06T19:20:57.518Z,75.25
2019-02-06T19:23:27.861Z,75.38
2019-02-06T19:25:58.727Z,75.63
2019-02-06T19:28:29.081Z,75.84
2019-02-06T19:31:02.556Z,76.00
2019-02-06T19:33:32.853Z,76.20
2019-02-06T19:36:03.357Z,76.46
2019-02-06T19:38:33.930Z,76.88
2019-02-06T19:41:04.829Z,77.26
2019-02-06T19:43:44.073Z,77.34
2019-02-06T19:46:16.255Z,77.85
2019-02-06T19:48:49.608Z,77.84
2019-02-06T19:51:20.150Z,77.97
2019-02-06T19:53:51.090Z,78.11
2019-02-06T19:56:24.600Z,78.32
2019-02-06T19:58:54.902Z,78.06
2019-02-06T20:01:25.347Z,78.04
2019-02-06T20:03:55.643Z,78.30
2019-02-06T20:06:32.287Z,78.62
2019-02-06T20:09:15.265Z,78.61
2019-02-06T20:11:45.823Z,78.60
2019-02-06T20:14:16.360Z,78.68
2019-02-06T20:16:46.975Z,78.90
2019-02-06T20:19:20.479Z,79.11
2019-02-06T20:21:50.052Z,79.11
2019-02-06T20:24:20.326Z,79.13
2019-02-06T20:26:50.740Z,78.78
2019-02-06T20:29:21.638Z,79.05
2019-02-06T20:31:51.898Z,79.29
2019-02-06T20:34:22.373Z,79.48
2019-02-06T20:36:53.634Z,79.74
2019-02-06T20:39:24.382Z,80.04
2019-02-06T20:41:54.673Z,80.41
2019-02-06T20:44:25.186Z,80.66
2019-02-06T20:46:55.967Z,80.69
2019-02-06T20:49:26.562Z,80.79
2019-02-06T20:51:56.829Z,82.86
2019-02-06T20:54:27.788Z,82.20
2019-02-06T20:56:58.181Z,82.08
2019-02-06T20:59:28.889Z,81.81
2019-02-06T21:01:59.485Z,81.73
2019-02-06T21:04:30.235Z,81.63
2019-02-06T21:07:00.984Z,81.70
2019-02-06T21:09:31.736Z,81.88
2019-02-06T21:12:02.216Z,82.90
2019-02-06T21:14:33.034Z,83.01
2019-02-06T21:17:03.659Z,82.91
2019-02-06T21:19:34.450Z,82.90
2019-02-06T21:22:05.574Z,82.76
2019-02-06T21:24:35.948Z,82.54
2019-02-06T21:27:06.318Z,82.68
2019-02-06T21:29:36.719Z,82.80
2019-02-06T21:32:07.488Z,82.74
2019-02-06T21:34:37.872Z,82.88
2019-02-06T21:37:08.449Z,83.01
2019-02-06T21:39:39.078Z,83.34
2019-02-06T21:42:09.479Z,84.06
2019-02-06T21:44:39.741Z,85.80
2019-02-06T21:47:11.309Z,87.25
2019-02-06T21:49:41.851Z,87.23
2019-02-06T21:52:12.371Z,86.30
2019-02-06T21:54:43.024Z,85.69
2019-02-06T21:57:13.461Z,85.13
2019-02-06T21:59:43.693Z,84.95
2019-02-06T22:02:14.678Z,84.97
2019-02-06T22:04:47.652Z,85.14
2019-02-06T22:07:18.220Z,85.33
2019-02-06T22:09:48.494Z,85.26
2019-02-06T22:12:19.025Z,85.04
2019-02-06T22:14:49.470Z,84.88
2019-02-06T22:17:20.729Z,84.93
2019-02-06T22:19:51.094Z,85.04
2019-02-06T22:22:21.344Z,84.86
2019-02-06T22:24:52.229Z,84.38
2019-02-06T22:27:22.692Z,84.34
2019-02-06T22:29:52.979Z,84.46
2019-02-06T22:32:23.565Z,84.84
2019-02-06T22:34:54.004Z,85.09
2019-02-06T22:37:24.472Z,85.24
2019-02-06T22:39:54.778Z,85.38
2019-02-06T22:42:25.235Z,85.33
2019-02-06T22:44:55.850Z,85.25
2019-02-06T22:47:26.270Z,85.28
2019-02-06T22:49:57.544Z,85.40
2019-02-06T22:52:28.120Z,85.31
2019-02-06T22:54:58.751Z,85.25
2019-02-06T22:57:28.946Z,85.13
2019-02-06T23:00:00.203Z,85.61
2019-02-06T23:02:30.870Z,86.81
2019-02-06T23:05:01.317Z,87.40
2019-02-06T23:07:32.392Z,87.89
2019-02-06T23:10:02.679Z,88.41
2019-02-06T23:12:33.011Z,89.40
2019-02-06T23:15:03.239Z,88.58
2019-02-06T23:17:33.694Z,87.88
2019-02-06T23:20:04.441Z,87.50
2019-02-06T23:22:34.750Z,87.48
2019-02-06T23:25:06.052Z,87.62
2019-02-06T23:27:36.200Z,87.59
2019-02-06T23:30:07.420Z,88.55
2019-02-06T23:32:37.765Z,89.99
2019-02-06T23:35:08.402Z,90.65
2019-02-06T23:37:38.779Z,90.14
2019-02-06T23:40:09.940Z,89.24
2019-02-06T23:42:40.141Z,88.60
2019-02-06T23:45:11.951Z,88.22
2019-02-06T23:47:42.656Z,89.98
2019-02-06T23:50:13.569Z,90.61
2019-02-06T23:52:43.792Z,90.46
2019-02-06T23:55:14.124Z,89.72
2019-02-06T23:57:44.371Z,89.26
